Time;durP1;ratioP1;P1;durP2;ratioP2;P2;SDS_P1;SDS_P2;PMS_P1;PMS_P2;Temp;Humidity;BMP_temperature;BMP_pressure;BME280_temperature;BME280_humidity;BME280_pressure;Samples;Min_cycle;Max_cycle;Signal;HPM_P1;HPM_P2
2024/03/15 00:03:59;;;;;;;386.60;358.40;;;;;;;10.45;100.00;100340.40;218378;1288;139247;-86
2024/03/15 00:08:59;;;;;;;325.00;301.00;;;;;;;10.48;100.00;100334.45;216890;1291;140430;-86
2024/03/15 00:13:59;;;;;;;403.50;374.00;;;;;;;10.49;100.00;100326.52;213936;1291;97047;-85
2024/03/15 00:19:02;;;;;;;417.80;387.20;;;;;;;10.49;100.00;100318.58;213497;1292;140208;-85
2024/03/15 00:24:03;;;;;;;387.90;359.80;;;;;;;10.49;100.00;100310.40;213424;1291;139274;-86
2024/03/15 00:29:04;;;;;;;335.30;311.60;;;;;;;10.49;100.00;100306.88;215078;1288;140586;-86
2024/03/15 00:34:06;;;;;;;301.30;279.00;;;;;;;10.50;100.00;100305.77;213795;1292;139274;-86
2024/03/15 00:39:07;;;;;;;343.50;318.10;;;;;;;10.49;100.00;100308.27;217689;1290;141239;-86
2024/03/15 00:44:08;;;;;;;383.50;354.90;;;;;;;10.49;100.00;100303.33;214487;1291;96631;-86
2024/03/15 00:49:10;;;;;;;380.40;353.50;;;;;;;10.48;100.00;100294.73;212730;1291;140013;-86
2024/03/15 00:54:11;;;;;;;377.90;350.90;;;;;;;10.48;100.00;100296.48;212800;1291;140684;-86
2024/03/15 00:59:11;;;;;;;367.40;342.00;;;;;;;10.48;100.00;100289.88;212546;1293;140801;-85
2024/03/15 01:04:13;;;;;;;374.00;347.40;;;;;;;10.47;100.00;100286.26;213045;1289;139309;-85
2024/03/15 01:09:14;;;;;;;330.70;306.70;;;;;;;10.46;100.00;100284.13;212918;1294;140469;-86
2024/03/15 01:14:14;;;;;;;334.20;309.90;;;;;;;10.46;100.00;100274.60;213260;1289;97948;-86
2024/03/15 01:19:15;;;;;;;328.00;304.60;;;;;;;10.44;100.00;100269.49;212629;1293;140317;-85
2024/03/15 01:24:16;;;;;;;290.20;269.90;;;;;;;10.43;100.00;100258.64;213148;1293;139280;-85
2024/03/15 01:29:17;;;;;;;245.10;226.90;;;;;;;10.41;100.00;100255.55;213497;1288;140463;-85
2024/03/15 01:34:17;;;;;;;313.70;289.60;;;;;;;10.38;100.00;100247.82;214880;1290;139872;-86
2024/03/15 01:39:18;;;;;;;284.20;262.70;;;;;;;10.38;100.00;100250.55;212476;1289;140712;-86
2024/03/15 01:44:18;;;;;;;269.30;249.40;;;;;;;10.35;100.00;100245.04;213280;1294;97727;-86
2024/03/15 01:49:19;;;;;;;280.80;260.10;;;;;;;10.32;100.00;100248.23;212548;1291;140125;-86
2024/03/15 01:54:19;;;;;;;270.90;250.60;;;;;;;10.30;100.00;100246.48;212977;1291;138991;-86
2024/03/15 01:59:20;;;;;;;243.70;226.10;;;;;;;10.29;100.00;100246.39;212546;1289;139661;-86
2024/03/15 02:04:20;;;;;;;267.40;247.40;;;;;;;10.29;100.00;100247.03;213081;1294;139179;-87
2024/03/15 02:09:21;;;;;;;281.70;261.90;;;;;;;10.30;100.00;100245.31;212668;1291;140812;-87
2024/03/15 02:14:22;;;;;;;233.50;216.30;;;;;;;10.31;100.00;100240.36;213192;1291;97558;-87
2024/03/15 02:19:24;;;;;;;230.30;214.10;;;;;;;10.28;100.00;100238.77;212462;1291;140179;-86
2024/03/15 02:24:25;;;;;;;264.00;244.50;;;;;;;10.25;100.00;100239.13;213224;1289;139230;-87
2024/03/15 02:29:26;;;;;;;256.00;237.40;;;;;;;10.24;100.00;100233.93;212545;1293;140031;-85
2024/03/15 02:34:27;;;;;;;429.10;397.90;;;;;;;10.23;100.00;100234.70;214950;1290;139375;-84
2024/03/15 02:39:27;;;;;;;463.90;431.00;;;;;;;10.23;100.00;100235.18;212761;1288;141658;-85
2024/03/15 02:44:28;;;;;;;539.10;500.10;;;;;;;10.22;100.00;100235.56;213365;1289;119029;-84
2024/03/15 02:49:29;;;;;;;514.50;476.60;;;;;;;10.20;100.00;100234.20;212651;1289;140512;-85
2024/03/15 02:54:29;;;;;;;490.00;453.50;;;;;;;10.19;100.00;100232.40;213186;1288;139220;-85
2024/03/15 02:59:32;;;;;;;523.60;485.20;;;;;;;10.18;100.00;100233.80;212640;1288;140129;-85
2024/03/15 03:04:32;;;;;;;522.10;484.90;;;;;;;10.17;100.00;100233.88;213366;1291;139699;-85
2024/03/15 03:09:33;;;;;;;509.20;473.40;;;;;;;10.17;100.00;100231.81;212800;1293;140150;-85
2024/03/15 03:14:33;;;;;;;508.40;473.40;;;;;;;10.17;100.00;100234.73;213183;1292;96754;-85
2024/03/15 03:19:34;;;;;;;470.00;436.80;;;;;;;10.17;100.00;100234.26;212728;1288;139489;-85
2024/03/15 03:24:35;;;;;;;490.70;455.60;;;;;;;10.16;100.00;100234.48;213241;1289;139104;-85
2024/03/15 03:29:36;;;;;;;433.60;403.80;;;;;;;10.15;100.00;100229.20;212717;1293;140196;-85
2024/03/15 03:34:37;;;;;;;388.90;361.50;;;;;;;10.13;100.00;100225.02;215595;1288;138334;-85
2024/03/15 03:39:37;;;;;;;442.00;411.10;;;;;;;10.12;100.00;100222.83;212821;1292;141386;-85
2024/03/15 03:44:38;;;;;;;430.10;399.00;;;;;;;10.11;100.00;100219.77;213327;1288;97614;-85
2024/03/15 03:49:38;;;;;;;428.20;397.80;;;;;;;10.09;100.00;100217.84;212736;1291;139849;-86
2024/03/15 03:54:39;;;;;;;415.50;385.40;;;;;;;10.08;100.00;100212.71;213056;1291;139828;-85
2024/03/15 03:59:40;;;;;;;377.70;351.00;;;;;;;10.07;100.00;100213.89;212616;1291;139584;-85
2024/03/15 04:04:42;;;;;;;380.60;353.70;;;;;;;10.06;100.00;100214.67;213090;1289;139893;-85
2024/03/15 04:09:43;;;;;;;305.70;285.10;;;;;;;10.05;100.00;100215.83;212584;1291;139451;-84
2024/03/15 04:14:44;;;;;;;268.90;250.10;;;;;;;10.03;100.00;100209.60;213218;1288;96678;-85
2024/03/15 04:19:45;;;;;;;301.40;281.00;;;;;;;10.00;100.00;100211.52;212668;1291;140622;-85
2024/03/15 04:24:46;;;;;;;263.10;244.50;;;;;;;9.99;100.00;100208.98;213460;1289;139167;-85
2024/03/15 04:29:46;;;;;;;267.30;248.70;;;;;;;9.98;100.00;100206.55;212664;1294;140307;-85
2024/03/15 04:34:47;;;;;;;218.70;202.90;;;;;;;9.97;100.00;100206.70;213474;1288;139071;-84
2024/03/15 04:39:48;;;;;;;221.30;205.00;;;;;;;9.94;100.00;100203.21;214703;1290;139358;-86
2024/03/15 04:44:48;;;;;;;189.70;175.30;;;;;;;9.94;100.00;100202.73;213373;1289;96649;-85
2024/03/15 04:49:49;;;;;;;184.20;170.90;;;;;;;9.93;100.00;100205.09;212578;1291;139704;-84
2024/03/15 04:54:49;;;;;;;201.50;186.70;;;;;;;9.92;100.00;100206.80;213164;1289;139193;-84
2024/03/15 04:59:51;;;;;;;210.00;194.60;;;;;;;9.91;100.00;100206.33;212740;1293;139244;-84
2024/03/15 05:04:52;;;;;;;170.30;157.50;;;;;;;9.90;100.00;100209.13;213141;1292;139624;-84
2024/03/15 05:09:52;;;;;;;202.00;186.60;;;;;;;9.90;100.00;100213.30;212391;1291;140311;-84
2024/03/15 05:14:53;;;;;;;152.90;141.10;;;;;;;9.89;100.00;100214.86;212993;1291;97964;-84
2024/03/15 05:19:53;;;;;;;159.00;146.80;;;;;;;9.87;100.00;100216.25;212599;1294;139064;-85
2024/03/15 05:24:54;;;;;;;161.30;149.10;;;;;;;9.86;100.00;100212.55;213106;1289;138994;-84
2024/03/15 05:29:55;;;;;;;146.80;134.80;;;;;;;9.86;100.00;100217.59;212607;1293;140912;-85
2024/03/15 05:34:56;;;;;;;125.40;115.50;;;;;;;9.85;100.00;100214.91;213113;1292;139667;-86
2024/03/15 05:39:56;;;;;;;184.40;171.20;;;;;;;9.84;100.00;100212.53;215338;1288;144677;-85
2024/03/15 05:44:57;;;;;;;145.90;134.20;;;;;;;9.83;100.00;100213.55;213169;1294;139071;-85
2024/03/15 05:49:57;;;;;;;173.00;159.80;;;;;;;9.83;100.00;100211.03;213013;1288;139203;-85
2024/03/15 05:54:59;;;;;;;175.70;162.20;;;;;;;9.85;100.00;100207.43;213073;1288;139773;-85
2024/03/15 06:00:10;;;;;;;133.40;122.30;;;;;;;9.87;100.00;100204.23;212569;1288;139029;-85
2024/03/15 06:05:10;;;;;;;165.90;153.10;;;;;;;9.89;100.00;100206.30;213685;1294;139085;-85
2024/03/15 06:10:11;;;;;;;143.00;132.10;;;;;;;9.93;100.00;100200.98;213256;1288;140359;-84
2024/03/15 06:15:12;;;;;;;136.60;125.80;;;;;;;9.96;100.00;100199.30;213579;1289;140391;-85
2024/03/15 06:20:12;;;;;;;152.80;140.40;;;;;;;10.00;100.00;100196.11;212555;1291;140587;-84
2024/03/15 06:25:13;;;;;;;120.90;110.50;;;;;;;10.04;100.00;100192.59;213274;1294;140339;-85
2024/03/15 06:30:16;;;;;;;165.60;153.10;;;;;;;10.07;100.00;100192.05;212964;1291;140435;-85
2024/03/15 06:35:19;;;;;;;140.70;129.20;;;;;;;10.11;100.00;100194.05;213115;1292;139561;-85
2024/03/15 06:40:30;;;;;;;218.60;196.20;;;;;;;10.14;100.00;100188.20;214297;1288;139821;-85
2024/03/15 06:45:44;;;;;;;163.70;151.00;;;;;;;10.20;100.00;100179.91;213948;1291;139421;-85
2024/03/15 06:50:48;;;;;;;156.10;144.60;;;;;;;10.27;100.00;100172.97;212922;1293;141097;-85
2024/03/15 06:55:48;;;;;;;243.40;226.30;;;;;;;10.33;100.00;100169.34;213783;1291;139286;-85
2024/03/15 07:00:49;;;;;;;226.40;210.30;;;;;;;10.41;100.00;100170.97;212890;1293;140284;-85
2024/03/15 07:05:50;;;;;;;173.30;160.80;;;;;;;10.47;100.00;100171.09;213253;1291;139857;-85
2024/03/15 07:10:51;;;;;;;257.90;239.70;;;;;;;10.54;100.00;100167.13;212707;1291;139554;-85
2024/03/15 07:15:52;;;;;;;343.70;320.00;;;;;;;10.63;100.00;100164.75;213958;1289;140315;-85
2024/03/15 07:20:53;;;;;;;216.10;200.40;;;;;;;10.75;100.00;100161.91;214798;1291;140321;-85
2024/03/15 07:25:54;;;;;;;218.50;202.80;;;;;;;10.85;100.00;100161.59;213943;1288;139232;-85
2024/03/15 07:30:55;;;;;;;341.30;316.50;;;;;;;10.97;100.00;100158.19;213334;1289;139944;-86
2024/03/15 07:36:01;;;;;;;345.10;319.30;;;;;;;11.10;99.91;100156.05;213215;1289;139433;-86
2024/03/15 07:41:02;;;;;;;395.60;367.30;;;;;;;11.23;99.86;100149.17;213581;1289;140485;-86
2024/03/15 07:46:05;;;;;;;491.40;457.00;;;;;;;11.38;99.94;100156.24;215652;1292;139299;-86
2024/03/15 07:51:05;;;;;;;497.10;461.60;;;;;;;11.55;99.29;100166.16;213222;1289;141133;-86
2024/03/15 07:56:09;;;;;;;596.30;552.10;;;;;;;11.70;99.39;100162.58;214092;1292;98174;-86
2024/03/15 08:01:09;;;;;;;545.30;504.10;;;;;;;11.87;98.80;100166.80;213311;1288;139253;-87
2024/03/15 08:06:10;;;;;;;590.10;546.00;;;;;;;12.02;96.97;100166.73;214191;1289;139481;-86
2024/03/15 08:11:11;;;;;;;750.70;691.80;;;;;;;12.15;97.93;100170.77;213402;1288;139198;-86
2024/03/15 08:16:33;;;;;;;777.60;713.10;;;;;;;12.30;97.41;100168.88;213914;1288;142021;-87
2024/03/15 08:21:36;;;;;;;844.10;772.10;;;;;;;12.46;96.09;100169.98;213556;1289;364740;-83
2024/03/15 08:26:39;;;;;;;800.20;732.70;;;;;;;12.62;95.87;100169.02;213921;1289;139739;-84
2024/03/15 08:31:39;;;;;;;995.90;892.30;;;;;;;12.77;95.64;100165.52;214089;1294;140218;-83
2024/03/15 08:36:40;;;;;;;909.50;823.10;;;;;;;12.97;95.31;100162.64;213108;1294;140255;-83
2024/03/15 08:41:42;;;;;;;1006.10;904.40;;;;;;;13.15;94.42;100156.20;213819;1292;139245;-84
2024/03/15 08:46:45;;;;;;;893.00;808.30;;;;;;;13.38;93.63;100157.83;214998;1288;162851;-85
2024/03/15 08:51:46;;;;;;;1048.50;902.20;;;;;;;13.54;92.14;100157.36;213027;1291;139418;-85
2024/03/15 08:56:46;;;;;;;1077.70;904.00;;;;;;;13.62;90.67;100151.32;212522;1289;257700;-85
2024/03/15 09:01:47;;;;;;;1056.20;925.60;;;;;;;13.72;91.00;100149.59;213906;1292;139851;-85
2024/03/15 09:06:48;;;;;;;1120.80;971.00;;;;;;;13.86;90.01;100146.02;213585;1288;141179;-85
2024/03/15 09:11:49;;;;;;;1461.00;999.90;;;;;;;13.99;89.29;100144.35;213722;1289;139631;-86
2024/03/15 09:16:52;;;;;;;1714.50;999.90;;;;;;;14.19;89.54;100141.68;213206;1294;140457;-86
2024/03/15 09:21:54;;;;;;;1489.80;999.90;;;;;;;14.41;88.75;100145.63;213178;1291;139403;-86
2024/03/15 09:26:55;;;;;;;1422.50;997.90;;;;;;;14.57;88.21;100143.90;212568;1294;140284;-85
2024/03/15 09:31:58;;;;;;;1733.20;999.90;;;;;;;14.82;87.11;100145.29;213520;1293;117160;-84
2024/03/15 09:37:02;;;;;;;1207.20;971.30;;;;;;;15.04;86.48;100143.78;212460;1294;139639;-85
2024/03/15 09:43:26;;;;;;;1833.40;999.90;;;;;;;15.46;100.00;100135.98;212358;1294;638445;-84
2024/03/15 09:48:28;;;;;;;1844.50;999.90;;;;;;;15.48;96.74;100133.84;215006;1295;138742;-86
2024/03/15 09:53:29;;;;;;;1370.60;997.70;;;;;;;15.82;93.84;100127.00;215549;1297;197369;-85
2024/03/15 09:58:31;;;;;;;1399.20;999.90;;;;;;;16.26;89.29;100128.52;212955;1292;139954;-84
2024/03/15 10:03:32;;;;;;;1168.70;985.80;;;;;;;16.42;86.59;100125.50;212910;1291;138952;-85
2024/03/15 10:08:33;;;;;;;1170.50;981.10;;;;;;;16.62;84.40;100122.19;213509;1291;141458;-84
2024/03/15 10:13:36;;;;;;;1032.70;927.00;;;;;;;16.77;82.98;100113.11;213370;1294;139089;-85
2024/03/15 10:18:39;;;;;;;1349.80;996.10;;;;;;;16.93;82.67;100106.99;212522;1292;139943;-86
2024/03/15 10:23:40;;;;;;;1304.50;996.40;;;;;;;17.26;83.45;100104.02;213026;1295;138945;-86
2024/03/15 10:28:40;;;;;;;1240.50;999.90;;;;;;;17.51;80.99;100104.14;212477;1294;139214;-87
2024/03/15 10:33:41;;;;;;;1383.70;999.90;;;;;;;17.77;81.15;100095.09;213078;1292;139178;-88
2024/03/15 10:38:41;;;;;;;929.10;843.50;;;;;;;17.99;77.99;100094.41;212687;1292;139985;-87
2024/03/15 10:43:42;;;;;;;862.20;789.60;;;;;;;17.93;75.97;100088.42;212766;1293;138390;-85
2024/03/15 10:48:42;;;;;;;922.20;840.00;;;;;;;17.95;75.95;100082.98;214210;1292;139249;-86
2024/03/15 10:53:43;;;;;;;1037.90;928.50;;;;;;;17.95;75.08;100086.80;213060;1294;138148;-86
2024/03/15 10:58:46;;;;;;;799.80;735.70;;;;;;;18.05;74.72;100074.91;212646;1291;138860;-84
2024/03/15 11:03:47;;;;;;;1119.80;971.90;;;;;;;18.09;74.02;100076.20;212912;1292;138114;-88
2024/03/15 11:08:47;;;;;;;1107.30;962.60;;;;;;;18.16;74.60;100066.70;212592;1295;138873;-86
2024/03/15 11:13:50;;;;;;;998.50;898.60;;;;;;;18.27;74.30;100065.77;213810;1291;138027;-84
2024/03/15 11:18:51;;;;;;;1249.70;998.30;;;;;;;18.36;74.66;100061.65;212729;1294;138939;-86
2024/03/15 11:23:51;;;;;;;1095.30;979.20;;;;;;;18.57;74.79;100062.38;213512;1291;138524;-86
2024/03/15 11:28:54;;;;;;;906.30;831.70;;;;;;;18.65;74.19;100058.55;214008;1291;139266;-86
2024/03/15 11:33:57;;;;;;;1039.10;940.10;;;;;;;18.64;73.83;100047.14;213384;1292;138603;-86
2024/03/15 11:38:59;;;;;;;1104.60;976.10;;;;;;;18.64;73.08;100044.58;212785;1291;139864;-86
2024/03/15 11:44:03;;;;;;;1123.60;986.70;;;;;;;18.68;72.60;100038.10;213334;1292;97919;-85
2024/03/15 11:49:03;;;;;;;1012.80;910.10;;;;;;;18.69;73.30;100031.14;213667;1294;140022;-85
2024/03/15 11:54:17;;;;;;;1017.50;918.90;;;;;;;18.63;72.57;100026.21;214427;1294;138394;-86
2024/03/15 11:59:18;;;;;;;1106.50;902.20;;;;;;;18.58;72.32;100024.89;212272;1291;139308;-88
2024/03/15 12:04:19;;;;;;;1183.00;984.80;;;;;;;18.51;71.71;100017.23;212939;1292;138386;-84
2024/03/15 12:09:20;;;;;;;1000.90;901.20;;;;;;;18.52;72.35;100020.55;213253;1292;138922;-84
2024/03/15 12:14:21;;;;;;;894.20;819.40;;;;;;;18.48;71.88;100017.15;212911;1292;96701;-83
2024/03/15 12:19:22;;;;;;;1041.10;927.50;;;;;;;18.41;71.29;100013.38;212563;1291;138271;-83
2024/03/15 12:24:23;;;;;;;918.80;838.90;;;;;;;18.31;71.12;100010.52;213092;1292;138211;-85
2024/03/15 12:29:23;;;;;;;996.50;900.20;;;;;;;18.24;71.67;100007.42;212425;1294;138921;-83
2024/03/15 12:34:24;;;;;;;1040.80;930.50;;;;;;;18.23;72.24;99997.13;212911;1296;138507;-85
2024/03/15 12:39:24;;;;;;;997.20;899.40;;;;;;;18.24;71.81;99997.39;212628;1294;138938;-83
2024/03/15 12:44:25;;;;;;;961.40;873.10;;;;;;;18.23;70.99;99990.75;213181;1291;96816;-86
2024/03/15 12:49:26;;;;;;;973.00;881.90;;;;;;;18.17;71.03;99984.77;212506;1291;138176;-85
2024/03/15 12:54:26;;;;;;;995.00;889.60;;;;;;;18.19;72.05;99982.66;215617;1291;138041;-83
2024/03/15 12:59:27;;;;;;;927.90;843.80;;;;;;;18.26;72.23;99979.70;213042;1291;138854;-85
2024/03/15 13:04:28;;;;;;;977.70;882.20;;;;;;;18.27;71.40;99982.36;213728;1292;138216;-84
2024/03/15 13:09:28;;;;;;;987.20;889.10;;;;;;;18.20;71.47;99981.61;213743;1292;138701;-83
2024/03/15 13:14:30;;;;;;;1123.70;935.10;;;;;;;18.19;71.88;99977.81;213884;1294;97953;-84
2024/03/15 13:19:30;;;;;;;997.40;898.00;;;;;;;18.17;71.83;99978.98;212561;1294;138852;-84
2024/03/15 13:24:31;;;;;;;995.90;898.70;;;;;;;18.09;72.08;99974.24;213147;1292;138100;-86
2024/03/15 13:29:32;;;;;;;967.10;874.90;;;;;;;18.05;72.20;99970.14;212591;1292;138767;-84
2024/03/15 13:34:32;;;;;;;998.50;900.20;;;;;;;18.03;73.33;99964.71;212994;1294;138264;-84
2024/03/15 13:39:33;;;;;;;903.80;821.80;;;;;;;18.01;73.02;99964.60;212521;1294;138583;-84
2024/03/15 13:44:35;;;;;;;931.70;843.60;;;;;;;17.98;72.31;99966.03;213803;1292;111242;-85
2024/03/15 13:49:35;;;;;;;940.00;853.40;;;;;;;17.90;72.29;99959.73;213433;1294;138956;-84
2024/03/15 13:54:36;;;;;;;1169.30;972.10;;;;;;;17.84;72.80;99952.73;215739;1292;138942;-84
2024/03/15 13:59:36;;;;;;;935.70;850.00;;;;;;;17.80;73.95;99955.54;213185;1294;140397;-83
2024/03/15 14:04:37;;;;;;;1026.10;919.20;;;;;;;17.73;73.97;99950.93;213316;1290;138498;-86
2024/03/15 14:09:37;;;;;;;1068.50;940.00;;;;;;;17.65;74.03;99948.45;212559;1295;138438;-83
2024/03/15 14:14:38;;;;;;;1025.90;912.20;;;;;;;17.62;74.76;99945.42;213095;1294;97161;-84
2024/03/15 14:19:40;;;;;;;1012.70;908.00;;;;;;;17.56;74.68;99939.28;212451;1297;139438;-85
2024/03/15 14:24:45;;;;;;;1010.40;900.80;;;;;;;17.52;74.86;99937.07;213278;1294;138499;-83
2024/03/15 14:29:48;;;;;;;1152.70;953.10;;;;;;;17.48;75.65;99932.73;212638;1294;138961;-84
2024/03/15 14:34:49;;;;;;;1125.70;960.20;;;;;;;17.51;76.69;99928.60;213383;1292;138512;-83
2024/03/15 14:39:50;;;;;;;1148.80;972.30;;;;;;;17.57;76.48;99931.71;213002;1290;138691;-82
2024/03/15 14:44:51;;;;;;;1114.30;944.10;;;;;;;17.58;76.27;99921.98;213012;1294;96712;-83
2024/03/15 14:49:52;;;;;;;1037.80;923.40;;;;;;;17.59;76.53;99924.57;212855;1292;139082;-84
2024/03/15 14:54:52;;;;;;;1150.20;958.20;;;;;;;17.61;76.47;99927.14;214440;1290;138409;-84
2024/03/15 14:59:53;;;;;;;1005.20;887.40;;;;;;;17.60;76.88;99921.20;214075;1295;138982;-84
2024/03/15 15:04:53;;;;;;;1026.80;914.60;;;;;;;17.60;76.82;99918.77;214021;1292;138349;-83
2024/03/15 15:09:54;;;;;;;1182.00;959.20;;;;;;;17.60;77.33;99918.67;213652;1288;227395;-83
2024/03/15 15:14:55;;;;;;;1105.10;951.70;;;;;;;17.57;76.89;99915.15;213760;1295;96642;-84
2024/03/15 15:19:55;;;;;;;1041.50;920.60;;;;;;;17.52;76.94;99912.90;212723;1294;138965;-81
2024/03/15 15:24:56;;;;;;;987.50;885.40;;;;;;;17.49;76.97;99913.39;213214;1292;138261;-84
2024/03/15 15:29:57;;;;;;;1046.00;934.60;;;;;;;17.42;77.30;99907.29;212596;1293;138665;-83
2024/03/15 15:34:58;;;;;;;1083.10;944.00;;;;;;;17.33;77.53;99903.50;213104;1290;138303;-83
2024/03/15 15:39:58;;;;;;;1025.60;918.70;;;;;;;17.27;78.06;99904.77;212594;1298;138635;-82
2024/03/15 15:44:59;;;;;;;1022.20;913.30;;;;;;;17.19;77.96;99902.03;213171;1302;138608;-84
2024/03/15 15:50:05;;;;;;;1048.10;920.20;;;;;;;17.09;78.43;99898.68;212845;1297;138164;-84
2024/03/15 15:55:08;;;;;;;1090.30;943.30;;;;;;;17.02;79.19;99896.65;213233;1294;139258;-81
2024/03/15 16:00:14;;;;;;;1019.90;910.90;;;;;;;16.95;79.54;99899.11;214495;1294;138918;-83
2024/03/15 16:05:15;;;;;;;1055.30;922.90;;;;;;;16.87;80.00;99901.27;213291;1297;138365;-83
2024/03/15 16:10:15;;;;;;;1100.00;943.70;;;;;;;16.82;80.53;99901.95;213010;1294;138802;-83
2024/03/15 16:15:15;;;;;;;1035.60;925.40;;;;;;;16.75;81.07;99902.39;213764;1295;138289;-83
2024/03/15 16:20:16;;;;;;;1117.50;948.10;;;;;;;16.68;81.44;99905.34;213586;1293;139515;-84
2024/03/15 16:25:17;;;;;;;1055.10;909.90;;;;;;;16.58;81.97;99902.57;214411;1294;138640;-82
2024/03/15 16:30:19;;;;;;;1105.60;942.20;;;;;;;16.49;82.65;99897.77;213302;1292;138900;-83
2024/03/15 16:35:20;;;;;;;1147.80;968.90;;;;;;;16.38;83.13;99898.60;213082;1294;138857;-83
2024/03/15 16:40:22;;;;;;;1195.70;958.60;;;;;;;16.28;83.59;99910.53;212568;1295;138644;-83
2024/03/15 16:45:23;;;;;;;1174.20;955.20;;;;;;;16.19;84.26;99908.65;213004;1292;138401;-84
2024/03/15 16:50:25;;;;;;;1107.00;945.70;;;;;;;16.07;84.99;99905.02;212770;1292;139363;-84
2024/03/15 16:55:28;;;;;;;1231.20;961.30;;;;;;;15.95;85.42;99907.32;213172;1294;138279;-83
2024/03/15 17:00:30;;;;;;;1157.50;955.70;;;;;;;15.85;86.12;99907.34;214948;1294;138332;-83
2024/03/15 17:05:31;;;;;;;1239.90;966.60;;;;;;;15.71;86.50;99905.92;213312;1292;139164;-84
2024/03/15 17:10:36;;;;;;;1352.50;969.30;;;;;;;15.60;87.37;99904.05;213340;1294;140405;-84
2024/03/15 17:15:36;;;;;;;1288.20;974.70;;;;;;;15.47;88.11;99907.00;213806;1291;139211;-85
2024/03/15 17:20:37;;;;;;;1358.20;970.30;;;;;;;15.34;88.99;99908.47;213414;1294;140064;-85
2024/03/15 17:25:38;;;;;;;1324.90;969.20;;;;;;;15.21;89.54;99911.18;213388;1290;138990;-85
2024/03/15 17:30:39;;;;;;;1272.90;964.90;;;;;;;15.09;90.40;99912.24;212504;1290;140366;-84
2024/03/15 17:35:39;;;;;;;1301.20;945.10;;;;;;;14.97;90.99;99911.33;213068;1292;139028;-84
2024/03/15 17:40:43;;;;;;;1213.90;948.90;;;;;;;14.84;91.73;99917.93;212592;1291;139765;-85
2024/03/15 17:45:44;;;;;;;1199.70;909.90;;;;;;;14.71;92.41;99915.66;213002;1294;139208;-85
2024/03/15 17:50:46;;;;;;;1248.80;934.90;;;;;;;14.57;93.43;99924.88;212637;1294;140259;-85
2024/03/15 17:55:47;;;;;;;1088.70;892.00;;;;;;;14.44;94.27;99920.77;213064;1289;140476;-85
2024/03/15 18:00:48;;;;;;;1041.10;862.60;;;;;;;14.35;94.87;99924.53;214860;1289;140737;-85
2024/03/15 18:05:48;;;;;;;979.00;846.50;;;;;;;14.23;95.58;99924.49;212820;1292;139199;-85
2024/03/15 18:10:49;;;;;;;868.90;780.00;;;;;;;14.12;96.17;99920.17;212601;1294;139812;-84
2024/03/15 18:15:50;;;;;;;793.80;719.50;;;;;;;14.03;96.85;99917.43;212940;1294;139220;-84
2024/03/15 18:20:51;;;;;;;828.90;747.00;;;;;;;13.94;97.35;99917.70;212573;1289;140183;-84
2024/03/15 18:25:52;;;;;;;717.10;653.50;;;;;;;13.85;98.01;99920.72;212917;1294;138904;-85
2024/03/15 18:30:52;;;;;;;495.90;458.20;;;;;;;13.75;98.66;99926.35;212409;1294;140024;-84
2024/03/15 18:35:53;;;;;;;219.60;204.10;;;;;;;13.66;99.24;99924.85;213104;1289;139069;-84
2024/03/15 18:40:54;;;;;;;150.30;139.50;;;;;;;13.56;99.74;99928.58;212586;1295;139922;-84
2024/03/15 18:45:55;;;;;;;102.10;94.30;;;;;;;13.46;99.90;99930.80;213039;1294;138989;-84
2024/03/15 18:50:56;;;;;;;89.90;82.80;;;;;;;13.36;100.00;99932.79;212309;1292;139413;-83
2024/03/15 18:55:57;;;;;;;75.80;69.60;;;;;;;13.27;100.00;99934.67;213131;1292;98393;-84
2024/03/15 19:01:00;;;;;;;59.00;53.30;;;;;;;13.18;100.00;99938.59;214519;1291;140071;-84
2024/03/15 19:06:00;;;;;;;57.40;51.10;;;;;;;13.11;100.00;99944.90;213261;1292;140632;-84
2024/03/15 19:11:00;;;;;;;62.80;56.70;;;;;;;13.06;100.00;99946.98;212401;1291;139123;-84
2024/03/15 19:16:01;;;;;;;81.00;74.30;;;;;;;12.99;100.00;99942.92;212911;1297;139074;-84
2024/03/15 19:21:02;;;;;;;76.10;69.10;;;;;;;12.94;100.00;99941.73;212396;1291;139776;-85
2024/03/15 19:26:05;;;;;;;61.50;55.20;;;;;;;12.87;100.00;99948.56;212862;1294;109741;-84
2024/03/15 19:31:06;;;;;;;54.80;49.60;;;;;;;12.83;100.00;99949.69;212388;1295;139432;-84
2024/03/15 19:36:06;;;;;;;153.80;141.00;;;;;;;12.86;100.00;99953.46;212784;1292;138990;-83
2024/03/15 19:41:10;;;;;;;57.20;50.90;;;;;;;13.01;100.00;99955.91;212324;1294;140459;-84
2024/03/15 19:46:11;;;;;;;53.70;48.00;;;;;;;13.11;100.00;99950.98;212876;1292;138857;-84
2024/03/15 19:51:11;;;;;;;56.40;50.60;;;;;;;13.15;100.00;99951.97;212319;1292;139506;-84
2024/03/15 19:56:12;;;;;;;63.50;57.70;;;;;;;13.18;100.00;99955.34;213005;1292;111176;-83
2024/03/15 20:01:13;;;;;;;50.10;44.70;;;;;;;13.20;100.00;99955.56;213962;1291;140373;-83
2024/03/15 20:06:14;;;;;;;76.40;70.50;;;;;;;13.23;100.00;99961.06;213885;1291;139230;-85
2024/03/15 20:11:14;;;;;;;116.20;108.10;;;;;;;13.24;100.00;99960.43;212702;1291;140115;-84
2024/03/15 20:16:18;;;;;;;140.00;131.30;;;;;;;13.23;100.00;99963.36;212812;1292;139247;-84
2024/03/15 20:21:19;;;;;;;148.40;138.90;;;;;;;13.17;100.00;99957.40;212447;1292;225087;-87
2024/03/15 20:26:22;;;;;;;203.10;190.10;;;;;;;13.08;100.00;99956.74;212619;1291;140722;-91
2024/03/15 20:31:24;;;;;;;234.50;217.80;;;;;;;12.99;100.00;99949.94;213480;1291;138795;-90
2024/03/15 20:36:25;;;;;;;222.60;207.00;;;;;;;12.94;100.00;99957.20;213150;1291;140728;-92
2024/03/15 20:41:26;;;;;;;325.20;302.20;;;;;;;12.90;100.00;99955.96;213898;1291;139220;-89
2024/03/15 20:46:27;;;;;;;310.60;288.10;;;;;;;12.86;100.00;99962.61;212684;1292;139516;-91
2024/03/15 20:51:28;;;;;;;443.40;407.80;;;;;;;12.80;100.00;99965.10;212898;1292;139370;-90
2024/03/15 20:56:28;;;;;;;441.10;404.90;;;;;;;12.71;100.00;99969.25;212607;1292;139760;-89
2024/03/15 21:01:28;;;;;;;415.00;382.10;;;;;;;12.65;100.00;99972.91;213426;1292;139264;-87
2024/03/15 21:06:30;;;;;;;431.10;397.90;;;;;;;12.59;100.00;99974.98;213574;1292;139775;-90
2024/03/15 21:11:30;;;;;;;495.40;456.50;;;;;;;12.54;100.00;99970.36;213015;1292;140061;-87
2024/03/15 21:16:31;;;;;;;498.50;459.50;;;;;;;12.50;100.00;99971.40;212566;1290;140754;-89
2024/03/15 21:21:32;;;;;;;493.90;454.60;;;;;;;12.45;100.00;99973.46;213063;1291;139209;-89
2024/03/15 21:26:35;;;;;;;487.90;450.50;;;;;;;12.43;100.00;99977.81;212667;1292;141212;-89
2024/03/15 21:31:36;;;;;;;545.80;501.10;;;;;;;12.40;100.00;99980.33;213122;1291;139115;-89
2024/03/15 21:36:38;;;;;;;523.70;480.20;;;;;;;12.36;100.00;99980.52;212840;1291;141153;-89
2024/03/15 21:41:41;;;;;;;463.00;427.70;;;;;;;12.32;100.00;99980.77;213381;1294;139368;-89
2024/03/15 21:46:44;;;;;;;495.40;456.80;;;;;;;12.24;100.00;99984.41;212809;1290;140670;-88
2024/03/15 21:51:47;;;;;;;525.70;484.60;;;;;;;12.19;100.00;99982.94;212953;1291;139520;-87